D/T METAR WX W/DIR W/SPE G/SPE TEMP DEWP
8/04/20 23:50 EGXZ 082250Z AUTO 32004KT 9999 NCD 11/06 Q1025 NW (320°) 4.6mph 11°C 6°C
8/04/20 22:50 EGXZ 082150Z AUTO 31008KT 9999 SCT100/// 12/06 Q1025 NW (310°) 9.2mph 12°C 6°C
8/04/20 21:50 EGXZ 082050Z AUTO 29008KT 9999 NCD 13/06 Q1024 WNW (290°) 9.2mph 13°C 6°C
8/04/20 20:50 EGXZ 081950Z AUTO 28006KT 9999 NCD 14/07 Q1024 W (280°) 6.9mph 14°C 7°C
8/04/20 19:50 EGXZ 081850Z AUTO 29009KT 9999 NCD 15/07 Q1024 WNW (290°) 10.4mph 15°C 7°C
8/04/20 18:50 EGXZ 081750Z AUTO 29010KT 9999 NCD 17/07 Q1023 WNW (290°) 11.5mph 17°C 7°C
8/04/20 17:50 EGXZ 081650Z AUTO 27008KT 9999 NCD 18/07 Q1023 W (270°) 9.2mph 18°C 7°C
8/04/20 16:50 EGXZ 081550Z AUTO 27008KT 9999 FEW050/// 18/08 Q1023 W (270°) 9.2mph 18°C 8°C
8/04/20 15:50 EGXZ 081450Z AUTO 25011KT 9999 FEW050/// 19/07 Q1023 WSW (250°) 12.7mph 19°C 7°C
8/04/20 14:50 EGXZ 081350Z AUTO 23009KT 9999 BKN050/// 19/07 Q1024 SW (230°) 10.4mph 19°C 7°C
8/04/20 13:50 EGXZ 081250Z AUTO 27007KT 9999 BKN050/// 18/07 Q1024 W (270°) 8.1mph 18°C 7°C
8/04/20 12:50 EGXZ 081150Z AUTO 18010KT 9999 SCT050/// 18/07 Q1024 S (180°) 11.5mph 18°C 7°C
8/04/20 11:50 EGXZ 081050Z AUTO 18008KT 9999 NCD 17/06 Q1025 S (180°) 9.2mph 17°C 6°C
8/04/20 10:50 EGXZ 080950Z AUTO 18006KT 9999 NCD 15/06 Q1025 S (180°) 6.9mph 15°C 6°C
8/04/20 09:50 EGXZ 080850Z AUTO 18001KT 9999 NCD 12/06 Q1025 S (180°) 1.2mph 12°C 6°C
8/04/20 08:50 EGXZ 080750Z AUTO 15002KT 9999 FEW060/// 09/06 Q1026 SSE (150°) 2.3mph 9°C 6°C
8/04/20 07:50 EGXZ 080650Z AUTO 07002KT 9999 OVC060/// 07/06 Q1026 ENE (70°) 2.3mph 7°C 6°C
8/04/20 06:50 EGXZ 080550Z AUTO 18005KT 9000 BR BKN060/// 03/03 Q1026 BR S (180°) 5.8mph 3°C 3°C
8/04/20 05:50 EGXZ 080450Z AUTO 07001KT 9999 BKN050/// 00/M01 Q1025 ENE (70°) 1.2mph 0°C -1°C
8/04/20 04:50 EGXZ 080350Z AUTO 05001KT 9999 NCD 02/01 Q1026 NE (50°) 1.2mph 2°C 1°C
8/04/20 03:50 EGXZ 080250Z AUTO 29002KT 9999 NCD 04/04 Q1026 WNW (290°) 2.3mph 4°C 4°C
8/04/20 02:50 EGXZ 080150Z AUTO 13003KT 9999 NCD 02/01 Q1026 SE (130°) 3.5mph 2°C 1°C
8/04/20 01:50 EGXZ 080050Z AUTO 21001KT 9999 NCD 05/04 Q1027 SSW (210°) 1.2mph 5°C 4°C
8/04/20 00:50 EGXZ 072350Z AUTO 13003KT 9999 NCD 06/04 Q1027 SE (130°) 3.5mph 6°C 4°C
7/04/20 23:50 EGXZ 072250Z AUTO 12004KT 9999 FEW240/// 06/04 Q1027 ESE (120°) 4.6mph 6°C 4°C
7/04/20 22:50 EGXZ 072150Z AUTO 12003KT 9999 NCD 08/04 Q1027 ESE (120°) 3.5mph 8°C 4°C
7/04/20 21:50 EGXZ 072050Z AUTO 18004KT 9999 NCD 09/04 Q1026 S (180°) 4.6mph 9°C 4°C
7/04/20 20:50 EGXZ 071950Z AUTO 17004KT 9999 NCD 10/04 Q1026 S (170°) 4.6mph 10°C 4°C
7/04/20 19:50 EGXZ 071850Z AUTO 20006KT 9999 NCD 13/04 Q1026 SSW (200°) 6.9mph 13°C 4°C
7/04/20 18:50 EGXZ 071750Z AUTO 18011KT 9999 NCD 16/05 Q1026 S (180°) 12.7mph 16°C 5°C
7/04/20 17:50 EGXZ 071650Z AUTO 18013KT 9999 NCD 17/04 Q1026 S (180°) 15.0mph 17°C 4°C
7/04/20 16:50 EGXZ 071550Z AUTO 18012KT 9999 NCD 17/02 Q1027 S (180°) 13.8mph 17°C 2°C
7/04/20 15:50 EGXZ 071450Z AUTO 16011KT 9999 NCD 18/04 Q1027 SSE (160°) 12.7mph 18°C 4°C
7/04/20 14:50 EGXZ 071350Z AUTO 17012KT 9999 NCD 17/04 Q1028 S (170°) 13.8mph 17°C 4°C
7/04/20 13:50 EGXZ 071250Z AUTO 19012KT 9999 NCD 17/05 Q1028 S (190°) 13.8mph 17°C 5°C
7/04/20 12:50 EGXZ 071150Z AUTO 19013KT 9999 NCD 15/04 Q1029 S (190°) 15.0mph 15°C 4°C
7/04/20 11:50 EGXZ 071050Z AUTO 16010KT 9999 NCD 14/04 Q1029 SSE (160°) 11.5mph 14°C 4°C
7/04/20 10:50 EGXZ 070950Z AUTO 16009KT 9999 NCD 12/05 Q1030 SSE (160°) 10.4mph 12°C 5°C
7/04/20 09:50 EGXZ 070850Z AUTO 15007KT 9999 NCD 10/04 Q1030 SSE (150°) 8.1mph 10°C 4°C
7/04/20 08:50 EGXZ 070750Z AUTO 16006KT 9999 NCD 06/04 Q1030 SSE (160°) 6.9mph 6°C 4°C
7/04/20 07:50 EGXZ 070650Z AUTO 18003KT 9999 NCD 03/03 Q1030 S (180°) 3.5mph 3°C 3°C
7/04/20 06:50 EGXZ 070550Z AUTO 11003KT 9000 BR NCD M00/M00 Q1029 BR ESE (110°) 3.5mph 0°C 0°C
7/04/20 05:50 EGXZ 070450Z AUTO 15003KT 9999 NCD M00/M01 Q1029 SSE (150°) 3.5mph 0°C -1°C
7/04/20 04:50 EGXZ 070350Z AUTO 12003KT 9999 NCD 01/01 Q1029 ESE (120°) 3.5mph 1°C 1°C
7/04/20 03:50 EGXZ 070250Z AUTO 15003KT 9999 NCD 01/01 Q1028 SSE (150°) 3.5mph 1°C 1°C
7/04/20 02:50 EGXZ 070150Z AUTO 15003KT 9999 NCD 02/01 Q1028 SSE (150°) 3.5mph 2°C 1°C
7/04/20 01:50 EGXZ 070050Z AUTO 15005KT 9999 NCD 02/01 Q1027 SSE (150°) 5.8mph 2°C 1°C
7/04/20 00:50 EGXZ 062350Z AUTO 12004KT 9999 NCD 02/00 Q1026 ESE (120°) 4.6mph 2°C 0°C